X Fechar
foto

X Fechar
foto
Clique e saiba mais
Clique e saiba mais
Clique e saiba mais
Clique e saiba mais
Clique e saiba mais
Clique e saiba mais

Edgers Racing

KTM Sacramento

Toro Sports

SP Race Park

JPS Racing

MotoX Pneus

Clique e saiba mais

> Notícias > Últimas Notícias

MXGP da Turquia - Resultados e vídeo da decisão na última volta
Publicado em: 08/09/2019

Batalha entre Glenn Coldenhoff e Jeffrey Herlings se repetiu na segunda bateria
Redação MotoX.com.br: Lucidio Arruda - Fotos: Ray Archer


Jeffrey Herlings

A penúltima etapa do Mundial de Motocross 2019 viu a volta de Jeffrey Herlings ao topo do pódio após uma batalha emocionante com seu conterrâneo Glenn Coldenhof, decidida na última volta. O terceiro degrau do pódio ficou com o letão Pauls Jonass, via 2-5.

O atual campeão Tim Gajser foi o quarto colocado, ainda sofrendo as consequências da queda na classificatória de sábado.

Vídeos





Resultados das baterias

P. # MXGP B1 Nat. Moto Tempo V Dif. Gap. M.V. Speed
1 84 Herlings, Jeffrey NED KTM 35:00.462 18 0:00.000 0:00.000 1:48.954 56.9
2 41 Jonass, Pauls LAT Hus 35:05.751 18 0:05.289 0:05.289 1:49.078 56.9
3 259 Coldenhoff, Glenn NED KTM 35:15.362 18 0:14.900 0:09.611 1:49.514 56.7
4 91 Seewer, Jeremy SUI Yam 35:17.162 18 0:16.700 0:01.800 1:50.254 56.3
5 21 Paulin, Gautier FRA Yam 35:19.611 18 0:19.149 0:02.449 1:50.563 56.1
6 243 Gajser, Tim SLO Hon 35:20.532 18 0:20.070 0:00.921 1:49.933 56.4
7 4 Tonus, Arnaud SUI Yam 35:22.371 18 0:21.909 0:01.839 1:50.654 56.1
8 128 Monticelli, Ivo ITA KTM 35:24.111 18 0:23.649 0:01.740 1:50.345 56.2
9 89 Van Horebeek, Jeremy BEL Hon 35:25.485 18 0:25.023 0:01.374 1:50.677 56.1
10 27 Jasikonis, Arminas LTU Hus 35:27.083 18 0:26.621 0:01.598 1:50.697 56
11 22 Strijbos, Kevin BEL Yam 35:28.373 18 0:27.911 0:01.290 1:50.583 56.1
12 911 Tixier, Jordi FRA KTM 35:58.163 18 0:57.701 0:29.790 1:50.944 55.9
13 189 Bogers, Brian NED Hon 36:07.544 18 1:07.082 0:09.381 1:50.882 56
14 127 Rodriguez, Anthony VEN Yam 36:23.309 18 1:22.847 0:15.765 1:53.179 54.8
15 77 Lupino, Alessandro ITA Kaw 36:27.136 18 1:26.674 0:03.827 1:50.872 56
16 24 Simpson, Shaun GBR KTM 36:34.847 18 1:34.385 0:07.711 1:53.545 54.6
17 152 Petrov, Petar BUL KTM 36:39.258 18 1:38.796 0:04.411 1:53.219 54.8
18 7 Leok, Tanel EST Hus 36:41.495 18 1:41.033 0:02.237 1:53.855 54.5
19 83 Renkens, Nathan BEL KTM 35:55.345 17 1 lap 1 lap 1:56.892 53.1
20 555 Guryev, Artem RUS Hus 36:04.754 17 1 lap 0:09.409 1:55.286 53.8
21 306 Kouzis, Panagiotis GRE Hon 37:00.206 17 1 lap 0:55.452 2:00.731 51.4
22 114 Dorseuil, Pascal FRA KTM 35:52.076 16 2 laps 1 lap 2:02.009 50.8
23 34 De Waal, Micha-Boy NED Yam 28:32.235 14 4 laps 2 laps 1:52.366 55.2
24 185 Celik, Mehmet TUR KTM 36:35.064 14 4 laps 8:02.829 2:19.384 44.5
25 54 Senkalayci, Sakir TUR KTM 37:04.776 14 4 laps 0:29.712 2:20.616 44.1
26 261 Basterzi, Murat TUR KTM 35:09.364 3 15 laps 11 laps 2:56.309 35.2


P. # MXGP B2 Nat. Moto Tempo V Dif. Gap. M.V. Speed
1 84 Herlings, Jeffrey NED KTM 35:07.079 18 0:00.000 0:00.000 1:49.966 56.4
2 259 Coldenhoff, Glenn NED KTM 35:09.376 18 0:02.297 0:02.297 1:50.267 56.3
3 243 Gajser, Tim SLO Hon 35:40.611 18 0:33.532 0:31.235 1:50.776 56
4 128 Monticelli, Ivo ITA KTM 35:44.695 18 0:37.616 0:04.084 1:50.870 56
5 41 Jonass, Pauls LAT Hus 35:46.899 18 0:39.820 0:02.204 1:51.413 55.7
6 21 Paulin, Gautier FRA Yam 35:48.431 18 0:41.352 0:01.532 1:52.383 55.2
7 89 Van Horebeek, Jeremy BEL Hon 35:50.411 18 0:43.332 0:01.980 1:51.860 55.5
8 91 Seewer, Jeremy SUI Yam 35:56.224 18 0:49.145 0:05.813 1:51.352 55.7
9 22 Strijbos, Kevin BEL Yam 36:00.654 18 0:53.575 0:04.430 1:52.553 55.1
10 911 Tixier, Jordi FRA KTM 36:10.558 18 1:03.479 0:09.904 1:52.022 55.4
11 189 Bogers, Brian NED Hon 36:16.592 18 1:09.513 0:06.034 1:52.219 55.3
12 77 Lupino, Alessandro ITA Kaw 36:18.156 18 1:11.077 0:01.564 1:53.222 54.8
13 27 Jasikonis, Arminas LTU Hus 36:22.187 18 1:15.108 0:04.031 1:51.594 55.6
14 127 Rodriguez, Anthony VEN Yam 36:24.167 18 1:17.088 0:01.980 1:53.503 54.7
15 24 Simpson, Shaun GBR KTM 36:27.952 18 1:20.873 0:03.785 1:53.012 54.9
16 4 Tonus, Arnaud SUI Yam 36:32.448 18 1:25.369 0:04.496 1:53.275 54.8
17 34 De Waal, Micha-Boy NED Yam 36:32.705 18 1:25.626 0:00.257 1:54.149 54.4
18 7 Leok, Tanel EST Hus 35:22.155 17 1 lap 1 lap 1:55.123 53.9
19 152 Petrov, Petar BUL KTM 35:29.116 17 1 lap 0:06.961 1:55.372 53.8
20 83 Renkens, Nathan BEL KTM 36:13.082 17 1 lap 0:43.966 1:57.574 52.8
21 555 Guryev, Artem RUS Hus 36:20.862 17 1 lap 0:07.780 1:57.765 52.7
22 306 Kouzis, Panagiotis GRE Hon 35:38.330 16 2 laps 1 lap 2:02.200 50.8
23 114 Dorseuil, Pascal FRA KTM 36:06.401 16 2 laps 0:28.071 2:02.652 50.6
24 185 Celik, Mehmet TUR KTM 36:31.732 13 5 laps 3 laps 2:17.646 45.1
25 54 Senkalayci, Sakir TUR KTM 35:55.070 2 16 laps 11 laps 2:26.247 42.4

Pódio MXGP
1. Jeffrey Herlings, 50 pts
2. Glenn Coldenhoff, 42
3. Pauls Jonass, 38

MX2 - Prado mantém domínio

Jorge Prado dominou a temporada de forma rara. Na era MX2 (antes denominada 125cc) só podemos compará-lo a Jeffrey Herlings. Está certo que o holandês costumava vencer baterias com mais de 40 segundos a 1 minuto de vantagem, mas uma análise mais profunda da carreira de ambos na categoria coloca alguns pontos a favor do espanhol.


Jorge Prado

Jeffrey Herlings conquistou seu primeiro título Mundial em sua terceira temporada completa no campeonato no ano de 2012. Na temporada deixou de vencer 14 baterias. Em seu terceiro ano completo na MX2 - participou apenas das três últimas etapas em 2016 - Prado já acumula o segundo título mundial e perdeu apenas 4 baterias das 34 em que largou. Ficou de fora da segunda etapa do campeonato para se recuperar de uma pequena lesão. Ano que vem o jovem Prado já estreia na categoria principal e segundo o próprio Antonio Cairoli, seu estilo casa bem com a 450 e não deve demorar para ele ser rápido com a nova moto.

Ótima estreia do holandês Roan van de Moosdijk, que subiu ao pódio com a terceira posição logo atrás de Jago Geerts. O campeão europeu EMX250 2019 já mostra que entrará na temporada 2020 com grandes aspirações.

Em breve o artigo completo sobre a etapa e mais vídeos da Turquia.

Resultados

P. # MX2 B1 Nat. Moto Tempo V Dif. Gap. M.V. Speed
1 61 Prado, Jorge ESP KTM 34:20.136 17 0:00.000 0:00.000 1:54.017 54.4
2 193 Geerts, Jago BEL Yam 34:41.915 17 0:21.779 0:21.779 1:54.775 54.1
3 10 Vlaanderen, Calvin NED Hon 34:47.824 17 0:27.688 0:05.909 1:54.074 54.4
4 959 Renaux, Maxime FRA Yam 34:50.195 17 0:30.059 0:02.371 1:53.976 54.4
5 39 Van De Moosdijk, Roan NED Kaw 34:51.910 17 0:31.774 0:01.715 1:54.384 54.2
6 172 Boisrame, Mathys FRA Hon 34:55.068 17 0:34.932 0:03.158 1:54.897 54
7 811 Sterry, Adam GBR Kaw 34:55.617 17 0:35.481 0:00.549 1:54.440 54.2
8 28 Vialle, Tom FRA KTM 34:58.798 17 0:38.662 0:03.181 1:54.901 54
9 303 Forato, Alberto ITA Hus 35:10.258 17 0:50.122 0:11.460 1:55.112 53.9
10 102 Sikyna, Richard SVK KTM 35:15.258 17 0:55.122 0:05.000 1:55.758 53.6
11 121 Guadagnini, Mattia ITA Hus 35:17.917 17 0:57.781 0:02.659 1:54.963 54
12 66 Larranaga Olano, Iker ESP KTM 35:22.750 17 1:02.614 0:04.833 1:56.155 53.4
13 35 Harrison, Mitchell USA Kaw 35:25.348 17 1:05.212 0:02.598 1:55.250 53.8
14 43 Evans, Mitchell AUS Hon 35:30.639 17 1:10.503 0:05.291 1:55.555 53.7
15 225 Strubhart Moreau, Brian FRA Kaw 35:34.608 17 1:14.472 0:03.969 1:56.163 53.4
16 161 Östlund, Alvin SWE Hus 35:35.249 17 1:15.113 0:00.641 1:55.999 53.5
17 57 Sanayei, Darian USA Kaw 35:35.576 17 1:15.440 0:00.327 1:55.487 53.7
18 101 Pichon, Zachary FRA Hon 35:46.069 17 1:25.933 0:10.493 1:56.722 53.2
19 240 Horgmo, Kevin NOR KTM 35:48.441 17 1:28.305 0:02.372 1:57.131 53
20 253 Pancar, Jan SLO Yam 35:57.893 17 1:37.757 0:09.452 1:57.357 52.9
21 56 Pessoa, Gustavo BRA Kaw 36:21.908 17 2:01.772 0:24.015 1:57.932 52.6
22 313 Polak, Petr CZE KTM 34:27.636 16 1 lap 1 lap 1:59.945 51.7
23 332 Conijn, Marcel NED Kaw 34:28.393 16 1 lap 0:00.757 1:59.487 51.9
24 410 Dankers, Raivo NED Yam 36:11.750 16 1 lap 1:43.357 2:01.592 51
25 19 Olsen, Thomas Kjer DEN Hus 25:26.593 12 5 laps 4 laps 1:55.145 53.9
26 32 Van doninck, Brent BEL Hon 24:58.735 11 6 laps 1 lap 1:59.246 52
27 58 Cetin, Mustafa TUR Yam 8:32.155 2 15 laps 9 laps 2:46.645 37.2
28 112 Senkalayci, Emircan TUR KTM 36:24.711 2 15 laps 27:52.556 10:00.959 10.3

P. # MX2 B2 Nat. Moto Tempo V Dif. Gap. M.V. Speed
1 61 Prado, Jorge ESP KTM 34:09.237 17 0:00.000 0:00.000 1:52.741 55
2 28 Vialle, Tom FRA KTM 34:19.415 17 0:10.178 0:10.178 1:53.469 54.7
3 39 Van De Moosdijk, Roan NED Kaw 34:21.197 17 0:11.960 0:01.782 1:53.052 54.9
4 959 Renaux, Maxime FRA Yam 34:22.937 17 0:13.700 0:01.740 1:53.469 54.7
5 193 Geerts, Jago BEL Yam 34:25.618 17 0:16.381 0:02.681 1:53.713 54.6
6 10 Vlaanderen, Calvin NED Hon 34:31.718 17 0:22.481 0:06.100 1:52.929 54.9
7 811 Sterry, Adam GBR Kaw 34:40.102 17 0:30.865 0:08.384 1:53.912 54.5
8 303 Forato, Alberto ITA Hus 34:44.326 17 0:35.089 0:04.224 1:54.073 54.4
9 43 Evans, Mitchell AUS Hon 34:54.559 17 0:45.322 0:10.233 1:54.514 54.2
10 121 Guadagnini, Mattia ITA Hus 35:08.126 17 0:58.889 0:13.567 1:55.135 53.9
11 172 Boisrame, Mathys FRA Hon 35:15.387 17 1:06.150 0:07.261 1:55.215 53.8
12 101 Pichon, Zachary FRA Hon 35:15.472 17 1:06.235 0:00.085 1:56.125 53.4
13 102 Sikyna, Richard SVK KTM 35:20.384 17 1:11.147 0:04.912 1:56.074 53.5
14 57 Sanayei, Darian USA Kaw 35:21.141 17 1:11.904 0:00.757 1:54.976 54
15 161 Östlund, Alvin SWE Hus 35:33.362 17 1:24.125 0:12.221 1:56.242 53.4
16 66 Larranaga Olano, Iker ESP KTM 35:40.532 17 1:31.295 0:07.170 1:56.159 53.4
17 253 Pancar, Jan SLO Yam 35:43.421 17 1:34.184 0:02.889 1:56.726 53.2
18 225 Strubhart Moreau, Brian FRA Kaw 35:47.751 17 1:38.514 0:04.330 1:56.324 53.3
19 313 Polak, Petr CZE KTM 35:49.580 17 1:40.343 0:01.829 1:57.242 52.9
20 410 Dankers, Raivo NED Yam 35:56.202 17 1:46.965 0:06.622 1:56.831 53.1
21 240 Horgmo, Kevin NOR KTM 36:03.146 17 1:53.909 0:06.944 1:57.006 53
22 332 Conijn, Marcel NED Kaw 35:01.059 16 1 lap 1 lap 1:59.455 51.9
23 35 Harrison, Mitchell USA Kaw 27:23.964 13 4 laps 3 laps 1:55.868 53.5
24 56 Pessoa, Gustavo BRA Kaw 14:51.737 6 11 laps 7 laps 2:01.415 51.1

Pódio
1. Jorge Prado, 50
2. Jago Geerts, 38
3. Roan van de Moosdijk, 36






© 2000 - 2018 MotoX MX1 Internet